sensor_id;sensor_type;location;lat;lon;timestamp;P1;durP1;ratioP1;P2;durP2;ratioP2
35667;SDS011;22158;59.280;17.806;2023-07-31T00:02:11;5.43;;;4.40;;
35667;SDS011;22158;59.280;17.806;2023-07-31T00:04:37;7.00;;;4.00;;
35667;SDS011;22158;59.280;17.806;2023-07-31T00:07:03;10.23;;;4.93;;
35667;SDS011;22158;59.280;17.806;2023-07-31T00:09:29;4.72;;;4.05;;
35667;SDS011;22158;59.280;17.806;2023-07-31T00:11:54;4.80;;;3.65;;
35667;SDS011;22158;59.280;17.806;2023-07-31T00:14:20;5.07;;;3.85;;
35667;SDS011;22158;59.280;17.806;2023-07-31T00:16:45;6.25;;;3.90;;
35667;SDS011;22158;59.280;17.806;2023-07-31T00:19:11;5.10;;;3.75;;
35667;SDS011;22158;59.280;17.806;2023-07-31T00:21:36;5.60;;;4.10;;
35667;SDS011;22158;59.280;17.806;2023-07-31T00:24:02;5.35;;;3.95;;
35667;SDS011;22158;59.280;17.806;2023-07-31T00:26:28;6.20;;;4.10;;
35667;SDS011;22158;59.280;17.806;2023-07-31T00:28:53;7.72;;;3.95;;
35667;SDS011;22158;59.280;17.806;2023-07-31T00:31:19;4.80;;;3.88;;
35667;SDS011;22158;59.280;17.806;2023-07-31T00:33:44;4.57;;;3.83;;
35667;SDS011;22158;59.280;17.806;2023-07-31T00:36:10;5.18;;;3.92;;
35667;SDS011;22158;59.280;17.806;2023-07-31T00:38:35;6.68;;;4.65;;
35667;SDS011;22158;59.280;17.806;2023-07-31T00:41:01;5.53;;;4.32;;
35667;SDS011;22158;59.280;17.806;2023-07-31T00:43:26;5.72;;;4.45;;
35667;SDS011;22158;59.280;17.806;2023-07-31T00:45:52;5.43;;;4.03;;
35667;SDS011;22158;59.280;17.806;2023-07-31T00:48:18;4.28;;;3.88;;
35667;SDS011;22158;59.280;17.806;2023-07-31T00:50:43;6.20;;;3.90;;
35667;SDS011;22158;59.280;17.806;2023-07-31T00:53:09;9.77;;;4.53;;
35667;SDS011;22158;59.280;17.806;2023-07-31T00:55:35;5.35;;;4.25;;
35667;SDS011;22158;59.280;17.806;2023-07-31T00:58:00;5.55;;;4.10;;
35667;SDS011;22158;59.280;17.806;2023-07-31T01:00:26;4.80;;;4.03;;
35667;SDS011;22158;59.280;17.806;2023-07-31T01:02:51;6.32;;;4.55;;
35667;SDS011;22158;59.280;17.806;2023-07-31T01:05:19;5.95;;;3.95;;
35667;SDS011;22158;59.280;17.806;2023-07-31T01:08:04;7.38;;;4.57;;
35667;SDS011;22158;59.280;17.806;2023-07-31T01:10:41;6.15;;;4.28;;
35667;SDS011;22158;59.280;17.806;2023-07-31T01:13:14;6.25;;;4.20;;
35667;SDS011;22158;59.280;17.806;2023-07-31T01:15:40;7.20;;;4.00;;
35667;SDS011;22158;59.280;17.806;2023-07-31T01:18:06;6.03;;;4.50;;
35667;SDS011;22158;59.280;17.806;2023-07-31T01:20:31;6.28;;;4.50;;
35667;SDS011;22158;59.280;17.806;2023-07-31T01:31:16;14.73;;;6.35;;
35667;SDS011;22158;59.280;17.806;2023-07-31T01:33:47;6.85;;;4.55;;
35667;SDS011;22158;59.280;17.806;2023-07-31T01:36:14;6.03;;;4.63;;
35667;SDS011;22158;59.280;17.806;2023-07-31T01:38:40;6.18;;;4.97;;
35667;SDS011;22158;59.280;17.806;2023-07-31T01:41:05;5.90;;;4.43;;
35667;SDS011;22158;59.280;17.806;2023-07-31T01:43:31;6.22;;;4.68;;
35667;SDS011;22158;59.280;17.806;2023-07-31T01:45:56;6.00;;;4.78;;
35667;SDS011;22158;59.280;17.806;2023-07-31T01:48:22;6.68;;;4.53;;
35667;SDS011;22158;59.280;17.806;2023-07-31T01:50:47;4.72;;;4.28;;
35667;SDS011;22158;59.280;17.806;2023-07-31T01:53:13;8.43;;;4.93;;
35667;SDS011;22158;59.280;17.806;2023-07-31T01:55:39;6.20;;;4.43;;
35667;SDS011;22158;59.280;17.806;2023-07-31T01:58:05;6.05;;;4.20;;
35667;SDS011;22158;59.280;17.806;2023-07-31T02:00:30;5.68;;;4.43;;
35667;SDS011;22158;59.280;17.806;2023-07-31T02:02:56;7.20;;;5.15;;
35667;SDS011;22158;59.280;17.806;2023-07-31T02:05:21;6.80;;;4.63;;
35667;SDS011;22158;59.280;17.806;2023-07-31T02:07:47;6.28;;;4.50;;
35667;SDS011;22158;59.280;17.806;2023-07-31T02:10:13;7.45;;;4.63;;
35667;SDS011;22158;59.280;17.806;2023-07-31T02:12:38;5.85;;;4.78;;
35667;SDS011;22158;59.280;17.806;2023-07-31T02:15:04;7.82;;;5.35;;
35667;SDS011;22158;59.280;17.806;2023-07-31T02:17:30;5.65;;;4.32;;
35667;SDS011;22158;59.280;17.806;2023-07-31T02:19:55;6.57;;;4.43;;
35667;SDS011;22158;59.280;17.806;2023-07-31T02:22:21;7.07;;;4.63;;
35667;SDS011;22158;59.280;17.806;2023-07-31T02:24:47;6.38;;;5.15;;
35667;SDS011;22158;59.280;17.806;2023-07-31T02:27:12;5.93;;;4.32;;
35667;SDS011;22158;59.280;17.806;2023-07-31T02:29:38;6.43;;;4.63;;
35667;SDS011;22158;59.280;17.806;2023-07-31T02:32:03;6.90;;;4.70;;
35667;SDS011;22158;59.280;17.806;2023-07-31T02:34:29;7.70;;;4.82;;
35667;SDS011;22158;59.280;17.806;2023-07-31T02:36:55;6.60;;;4.72;;
35667;SDS011;22158;59.280;17.806;2023-07-31T02:39:20;5.95;;;4.80;;
35667;SDS011;22158;59.280;17.806;2023-07-31T02:41:46;6.70;;;4.65;;
35667;SDS011;22158;59.280;17.806;2023-07-31T02:44:12;6.45;;;4.72;;
35667;SDS011;22158;59.280;17.806;2023-07-31T02:46:39;7.07;;;4.95;;
35667;SDS011;22158;59.280;17.806;2023-07-31T02:49:05;4.82;;;4.10;;
35667;SDS011;22158;59.280;17.806;2023-07-31T02:51:30;5.70;;;5.03;;
35667;SDS011;22158;59.280;17.806;2023-07-31T02:53:56;7.20;;;4.78;;
35667;SDS011;22158;59.280;17.806;2023-07-31T02:56:21;7.20;;;4.68;;
35667;SDS011;22158;59.280;17.806;2023-07-31T02:58:47;9.95;;;5.22;;
35667;SDS011;22158;59.280;17.806;2023-07-31T03:01:13;8.02;;;4.50;;
35667;SDS011;22158;59.280;17.806;2023-07-31T03:03:38;5.07;;;4.20;;
35667;SDS011;22158;59.280;17.806;2023-07-31T03:06:04;6.40;;;4.82;;
35667;SDS011;22158;59.280;17.806;2023-07-31T03:08:29;7.35;;;5.70;;
35667;SDS011;22158;59.280;17.806;2023-07-31T03:10:56;7.70;;;5.03;;
35667;SDS011;22158;59.280;17.806;2023-07-31T03:13:22;8.77;;;5.05;;
35667;SDS011;22158;59.280;17.806;2023-07-31T03:15:47;7.32;;;5.25;;
35667;SDS011;22158;59.280;17.806;2023-07-31T03:18:13;8.77;;;5.85;;
35667;SDS011;22158;59.280;17.806;2023-07-31T03:20:41;7.13;;;5.18;;
35667;SDS011;22158;59.280;17.806;2023-07-31T03:23:08;6.13;;;4.78;;
35667;SDS011;22158;59.280;17.806;2023-07-31T03:25:34;13.98;;;6.60;;
35667;SDS011;22158;59.280;17.806;2023-07-31T03:28:00;7.45;;;4.68;;
35667;SDS011;22158;59.280;17.806;2023-07-31T03:30:25;5.85;;;5.18;;
35667;SDS011;22158;59.280;17.806;2023-07-31T03:32:51;6.65;;;5.38;;
35667;SDS011;22158;59.280;17.806;2023-07-31T03:35:17;6.82;;;4.75;;
35667;SDS011;22158;59.280;17.806;2023-07-31T03:37:42;6.95;;;4.65;;
35667;SDS011;22158;59.280;17.806;2023-07-31T03:40:08;6.68;;;5.57;;
35667;SDS011;22158;59.280;17.806;2023-07-31T03:42:34;7.32;;;5.07;;
35667;SDS011;22158;59.280;17.806;2023-07-31T03:44:59;7.45;;;4.32;;
35667;SDS011;22158;59.280;17.806;2023-07-31T03:47:25;7.18;;;5.82;;
35667;SDS011;22158;59.280;17.806;2023-07-31T03:49:51;7.78;;;5.57;;
35667;SDS011;22158;59.280;17.806;2023-07-31T03:52:17;6.00;;;5.10;;
35667;SDS011;22158;59.280;17.806;2023-07-31T03:54:42;6.20;;;5.45;;
35667;SDS011;22158;59.280;17.806;2023-07-31T03:57:09;7.88;;;5.20;;
35667;SDS011;22158;59.280;17.806;2023-07-31T03:59:36;10.55;;;4.72;;
35667;SDS011;22158;59.280;17.806;2023-07-31T04:02:04;7.55;;;6.13;;
35667;SDS011;22158;59.280;17.806;2023-07-31T04:04:29;8.50;;;5.50;;
35667;SDS011;22158;59.280;17.806;2023-07-31T04:06:55;8.00;;;5.45;;
35667;SDS011;22158;59.280;17.806;2023-07-31T04:09:20;7.72;;;5.18;;
35667;SDS011;22158;59.280;17.806;2023-07-31T04:11:46;6.05;;;5.10;;
35667;SDS011;22158;59.280;17.806;2023-07-31T04:14:11;8.15;;;6.07;;
35667;SDS011;22158;59.280;17.806;2023-07-31T04:16:37;7.82;;;5.90;;
35667;SDS011;22158;59.280;17.806;2023-07-31T04:19:03;10.07;;;5.63;;
35667;SDS011;22158;59.280;17.806;2023-07-31T04:21:29;6.43;;;5.40;;
35667;SDS011;22158;59.280;17.806;2023-07-31T04:23:54;8.35;;;6.07;;
35667;SDS011;22158;59.280;17.806;2023-07-31T04:26:21;10.05;;;6.65;;
35667;SDS011;22158;59.280;17.806;2023-07-31T04:28:47;7.30;;;6.22;;
35667;SDS011;22158;59.280;17.806;2023-07-31T04:31:12;7.65;;;5.60;;
35667;SDS011;22158;59.280;17.806;2023-07-31T04:33:38;7.65;;;5.95;;
35667;SDS011;22158;59.280;17.806;2023-07-31T04:36:04;8.43;;;6.40;;
35667;SDS011;22158;59.280;17.806;2023-07-31T04:38:30;7.03;;;5.65;;
35667;SDS011;22158;59.280;17.806;2023-07-31T04:40:55;9.43;;;6.97;;
35667;SDS011;22158;59.280;17.806;2023-07-31T04:43:21;7.28;;;6.22;;
35667;SDS011;22158;59.280;17.806;2023-07-31T04:45:46;6.80;;;5.28;;
35667;SDS011;22158;59.280;17.806;2023-07-31T04:48:13;12.10;;;6.38;;
35667;SDS011;22158;59.280;17.806;2023-07-31T04:50:39;11.40;;;7.25;;
35667;SDS011;22158;59.280;17.806;2023-07-31T04:53:04;12.13;;;8.05;;
35667;SDS011;22158;59.280;17.806;2023-07-31T04:55:30;10.60;;;6.78;;
35667;SDS011;22158;59.280;17.806;2023-07-31T04:57:57;9.15;;;6.88;;
35667;SDS011;22158;59.280;17.806;2023-07-31T05:00:23;8.75;;;7.85;;
35667;SDS011;22158;59.280;17.806;2023-07-31T05:02:49;9.15;;;7.22;;
35667;SDS011;22158;59.280;17.806;2023-07-31T05:05:14;11.40;;;7.07;;
35667;SDS011;22158;59.280;17.806;2023-07-31T05:07:40;9.45;;;7.20;;
35667;SDS011;22158;59.280;17.806;2023-07-31T05:10:05;12.45;;;6.57;;
35667;SDS011;22158;59.280;17.806;2023-07-31T05:12:31;8.30;;;6.47;;
35667;SDS011;22158;59.280;17.806;2023-07-31T05:14:57;10.85;;;6.57;;
35667;SDS011;22158;59.280;17.806;2023-07-31T05:17:22;9.73;;;6.78;;
35667;SDS011;22158;59.280;17.806;2023-07-31T05:19:48;9.63;;;6.53;;
35667;SDS011;22158;59.280;17.806;2023-07-31T05:22:13;8.07;;;6.57;;
35667;SDS011;22158;59.280;17.806;2023-07-31T05:24:39;6.93;;;5.70;;
35667;SDS011;22158;59.280;17.806;2023-07-31T05:27:04;7.28;;;6.00;;
35667;SDS011;22158;59.280;17.806;2023-07-31T05:29:30;6.75;;;6.05;;
35667;SDS011;22158;59.280;17.806;2023-07-31T05:31:56;7.05;;;5.97;;
35667;SDS011;22158;59.280;17.806;2023-07-31T05:34:21;8.55;;;5.93;;
35667;SDS011;22158;59.280;17.806;2023-07-31T05:36:47;6.72;;;5.63;;
35667;SDS011;22158;59.280;17.806;2023-07-31T05:39:12;9.98;;;6.35;;
35667;SDS011;22158;59.280;17.806;2023-07-31T05:41:38;10.43;;;6.10;;
35667;SDS011;22158;59.280;17.806;2023-07-31T05:44:04;7.28;;;5.78;;
35667;SDS011;22158;59.280;17.806;2023-07-31T05:46:29;7.82;;;5.18;;
35667;SDS011;22158;59.280;17.806;2023-07-31T05:48:56;9.52;;;5.72;;
35667;SDS011;22158;59.280;17.806;2023-07-31T05:51:21;8.15;;;5.47;;
35667;SDS011;22158;59.280;17.806;2023-07-31T05:53:47;8.15;;;4.80;;
35667;SDS011;22158;59.280;17.806;2023-07-31T05:56:12;6.13;;;4.72;;
35667;SDS011;22158;59.280;17.806;2023-07-31T05:58:38;11.38;;;4.13;;
35667;SDS011;22158;59.280;17.806;2023-07-31T06:01:03;5.43;;;4.65;;
35667;SDS011;22158;59.280;17.806;2023-07-31T06:03:29;7.10;;;4.20;;
35667;SDS011;22158;59.280;17.806;2023-07-31T06:05:55;6.10;;;3.65;;
35667;SDS011;22158;59.280;17.806;2023-07-31T06:08:21;6.03;;;3.85;;
35667;SDS011;22158;59.280;17.806;2023-07-31T06:10:46;6.93;;;3.85;;
35667;SDS011;22158;59.280;17.806;2023-07-31T06:13:12;5.75;;;3.58;;
35667;SDS011;22158;59.280;17.806;2023-07-31T06:15:37;6.85;;;3.50;;
35667;SDS011;22158;59.280;17.806;2023-07-31T06:18:03;5.70;;;3.40;;
35667;SDS011;22158;59.280;17.806;2023-07-31T06:20:32;7.32;;;3.30;;
35667;SDS011;22158;59.280;17.806;2023-07-31T06:22:58;6.32;;;3.15;;
35667;SDS011;22158;59.280;17.806;2023-07-31T06:25:23;9.43;;;3.45;;
35667;SDS011;22158;59.280;17.806;2023-07-31T06:27:49;6.65;;;3.60;;
35667;SDS011;22158;59.280;17.806;2023-07-31T06:30:14;5.78;;;4.10;;
35667;SDS011;22158;59.280;17.806;2023-07-31T06:32:40;4.32;;;3.35;;
35667;SDS011;22158;59.280;17.806;2023-07-31T06:35:06;5.13;;;3.30;;
35667;SDS011;22158;59.280;17.806;2023-07-31T06:37:31;4.30;;;3.22;;
35667;SDS011;22158;59.280;17.806;2023-07-31T06:39:57;5.40;;;3.75;;
35667;SDS011;22158;59.280;17.806;2023-07-31T06:42:23;3.92;;;2.70;;
35667;SDS011;22158;59.280;17.806;2023-07-31T06:44:48;7.60;;;3.30;;
35667;SDS011;22158;59.280;17.806;2023-07-31T06:47:14;6.18;;;3.63;;
35667;SDS011;22158;59.280;17.806;2023-07-31T06:49:40;5.72;;;3.60;;
35667;SDS011;22158;59.280;17.806;2023-07-31T06:52:05;5.65;;;2.95;;
35667;SDS011;22158;59.280;17.806;2023-07-31T06:54:31;3.50;;;2.60;;
35667;SDS011;22158;59.280;17.806;2023-07-31T06:56:57;6.28;;;3.10;;
35667;SDS011;22158;59.280;17.806;2023-07-31T06:59:23;4.57;;;3.30;;
35667;SDS011;22158;59.280;17.806;2023-07-31T07:01:48;4.13;;;3.03;;
35667;SDS011;22158;59.280;17.806;2023-07-31T07:04:14;7.50;;;3.30;;
35667;SDS011;22158;59.280;17.806;2023-07-31T07:06:39;6.32;;;3.33;;
35667;SDS011;22158;59.280;17.806;2023-07-31T07:09:05;4.60;;;3.08;;
35667;SDS011;22158;59.280;17.806;2023-07-31T07:11:31;7.20;;;3.70;;
35667;SDS011;22158;59.280;17.806;2023-07-31T07:13:56;5.10;;;3.65;;
35667;SDS011;22158;59.280;17.806;2023-07-31T07:16:22;8.77;;;3.78;;
35667;SDS011;22158;59.280;17.806;2023-07-31T07:18:47;9.68;;;3.58;;
35667;SDS011;22158;59.280;17.806;2023-07-31T07:21:13;6.38;;;3.28;;
35667;SDS011;22158;59.280;17.806;2023-07-31T07:23:41;6.03;;;3.30;;
35667;SDS011;22158;59.280;17.806;2023-07-31T07:26:07;4.75;;;3.20;;
35667;SDS011;22158;59.280;17.806;2023-07-31T07:28:32;4.47;;;2.70;;
35667;SDS011;22158;59.280;17.806;2023-07-31T07:30:58;5.18;;;2.85;;
35667;SDS011;22158;59.280;17.806;2023-07-31T07:33:24;7.88;;;3.10;;
35667;SDS011;22158;59.280;17.806;2023-07-31T07:35:49;6.43;;;3.05;;
35667;SDS011;22158;59.280;17.806;2023-07-31T07:38:15;6.38;;;3.30;;
35667;SDS011;22158;59.280;17.806;2023-07-31T07:40:40;5.63;;;2.55;;
35667;SDS011;22158;59.280;17.806;2023-07-31T07:43:06;6.25;;;2.42;;
35667;SDS011;22158;59.280;17.806;2023-07-31T07:45:32;5.75;;;2.50;;
35667;SDS011;22158;59.280;17.806;2023-07-31T07:47:57;5.78;;;2.25;;
35667;SDS011;22158;59.280;17.806;2023-07-31T07:50:24;5.68;;;2.35;;
35667;SDS011;22158;59.280;17.806;2023-07-31T07:52:49;8.95;;;2.53;;
35667;SDS011;22158;59.280;17.806;2023-07-31T07:55:15;3.70;;;2.35;;
35667;SDS011;22158;59.280;17.806;2023-07-31T07:57:41;5.72;;;2.58;;
35667;SDS011;22158;59.280;17.806;2023-07-31T08:00:06;3.88;;;2.53;;
35667;SDS011;22158;59.280;17.806;2023-07-31T08:02:32;4.32;;;2.60;;
35667;SDS011;22158;59.280;17.806;2023-07-31T08:04:58;5.93;;;2.75;;
35667;SDS011;22158;59.280;17.806;2023-07-31T08:07:23;3.40;;;2.63;;
35667;SDS011;22158;59.280;17.806;2023-07-31T08:09:49;4.25;;;2.17;;
35667;SDS011;22158;59.280;17.806;2023-07-31T08:12:15;3.65;;;2.13;;
35667;SDS011;22158;59.280;17.806;2023-07-31T08:14:40;3.00;;;2.00;;
35667;SDS011;22158;59.280;17.806;2023-07-31T08:17:06;5.40;;;2.47;;
35667;SDS011;22158;59.280;17.806;2023-07-31T08:19:31;4.50;;;2.40;;
35667;SDS011;22158;59.280;17.806;2023-07-31T08:21:57;6.50;;;3.10;;
35667;SDS011;22158;59.280;17.806;2023-07-31T08:24:22;5.78;;;3.13;;
35667;SDS011;22158;59.280;17.806;2023-07-31T08:26:48;8.43;;;2.72;;
35667;SDS011;22158;59.280;17.806;2023-07-31T08:29:14;6.72;;;2.90;;
35667;SDS011;22158;59.280;17.806;2023-07-31T08:31:39;4.72;;;3.10;;
35667;SDS011;22158;59.280;17.806;2023-07-31T08:34:05;6.40;;;2.80;;
35667;SDS011;22158;59.280;17.806;2023-07-31T08:36:30;9.85;;;3.97;;
35667;SDS011;22158;59.280;17.806;2023-07-31T08:38:56;7.20;;;4.03;;
35667;SDS011;22158;59.280;17.806;2023-07-31T08:41:21;7.25;;;2.72;;
35667;SDS011;22158;59.280;17.806;2023-07-31T08:43:47;8.02;;;2.97;;
35667;SDS011;22158;59.280;17.806;2023-07-31T08:46:14;7.18;;;3.25;;
35667;SDS011;22158;59.280;17.806;2023-07-31T08:48:41;4.10;;;2.80;;
35667;SDS011;22158;59.280;17.806;2023-07-31T08:51:08;4.25;;;2.30;;
35667;SDS011;22158;59.280;17.806;2023-07-31T08:53:34;4.55;;;2.63;;
35667;SDS011;22158;59.280;17.806;2023-07-31T08:55:59;6.43;;;3.00;;
35667;SDS011;22158;59.280;17.806;2023-07-31T08:58:25;7.82;;;2.88;;
35667;SDS011;22158;59.280;17.806;2023-07-31T09:00:52;3.95;;;1.98;;
35667;SDS011;22158;59.280;17.806;2023-07-31T09:03:20;5.28;;;2.40;;
35667;SDS011;22158;59.280;17.806;2023-07-31T09:05:48;3.80;;;2.75;;
35667;SDS011;22158;59.280;17.806;2023-07-31T09:08:16;4.35;;;2.72;;
35667;SDS011;22158;59.280;17.806;2023-07-31T09:10:44;6.70;;;2.08;;
35667;SDS011;22158;59.280;17.806;2023-07-31T09:13:14;5.55;;;2.22;;
35667;SDS011;22158;59.280;17.806;2023-07-31T09:15:41;6.45;;;2.20;;
35667;SDS011;22158;59.280;17.806;2023-07-31T09:18:09;6.57;;;2.67;;
35667;SDS011;22158;59.280;17.806;2023-07-31T09:20:34;4.82;;;2.40;;
35667;SDS011;22158;59.280;17.806;2023-07-31T09:23:13;6.32;;;2.88;;
35667;SDS011;22158;59.280;17.806;2023-07-31T09:25:41;6.50;;;2.47;;
35667;SDS011;22158;59.280;17.806;2023-07-31T09:28:10;8.15;;;3.38;;
35667;SDS011;22158;59.280;17.806;2023-07-31T09:30:54;4.32;;;2.58;;
35667;SDS011;22158;59.280;17.806;2023-07-31T09:33:19;6.00;;;2.83;;
35667;SDS011;22158;59.280;17.806;2023-07-31T09:35:46;3.40;;;2.13;;
35667;SDS011;22158;59.280;17.806;2023-07-31T09:38:13;3.88;;;2.13;;
35667;SDS011;22158;59.280;17.806;2023-07-31T09:40:46;5.85;;;2.80;;
35667;SDS011;22158;59.280;17.806;2023-07-31T09:43:14;5.10;;;2.50;;
35667;SDS011;22158;59.280;17.806;2023-07-31T09:45:43;4.20;;;1.90;;
35667;SDS011;22158;59.280;17.806;2023-07-31T09:48:10;5.95;;;2.60;;
35667;SDS011;22158;59.280;17.806;2023-07-31T09:50:40;3.42;;;2.42;;
35667;SDS011;22158;59.280;17.806;2023-07-31T09:53:07;5.40;;;2.85;;
35667;SDS011;22158;59.280;17.806;2023-07-31T09:55:36;4.20;;;2.20;;
35667;SDS011;22158;59.280;17.806;2023-07-31T09:58:06;6.05;;;2.90;;
35667;SDS011;22158;59.280;17.806;2023-07-31T10:00:34;6.97;;;2.25;;
35667;SDS011;22158;59.280;17.806;2023-07-31T10:03:01;6.65;;;2.38;;
35667;SDS011;22158;59.280;17.806;2023-07-31T10:05:36;5.20;;;2.33;;
35667;SDS011;22158;59.280;17.806;2023-07-31T10:08:01;4.65;;;2.42;;
35667;SDS011;22158;59.280;17.806;2023-07-31T10:10:29;10.10;;;3.35;;
35667;SDS011;22158;59.280;17.806;2023-07-31T10:12:56;6.10;;;2.92;;
35667;SDS011;22158;59.280;17.806;2023-07-31T10:15:22;4.60;;;2.08;;
35667;SDS011;22158;59.280;17.806;2023-07-31T10:17:49;3.00;;;2.05;;
35667;SDS011;22158;59.280;17.806;2023-07-31T10:20:15;3.97;;;2.20;;
35667;SDS011;22158;59.280;17.806;2023-07-31T10:22:42;3.17;;;1.88;;
35667;SDS011;22158;59.280;17.806;2023-07-31T10:25:08;7.90;;;2.45;;
35667;SDS011;22158;59.280;17.806;2023-07-31T10:27:43;7.05;;;2.75;;
35667;SDS011;22158;59.280;17.806;2023-07-31T10:30:14;4.43;;;2.30;;
35667;SDS011;22158;59.280;17.806;2023-07-31T10:32:41;4.05;;;2.15;;
35667;SDS011;22158;59.280;17.806;2023-07-31T10:35:09;5.00;;;2.03;;
35667;SDS011;22158;59.280;17.806;2023-07-31T10:37:39;3.85;;;2.08;;
35667;SDS011;22158;59.280;17.806;2023-07-31T10:48:02;6.35;;;2.22;;
35667;SDS011;22158;59.280;17.806;2023-07-31T10:50:29;6.03;;;2.85;;
35667;SDS011;22158;59.280;17.806;2023-07-31T10:52:57;4.18;;;2.17;;
35667;SDS011;22158;59.280;17.806;2023-07-31T10:57:55;8.70;;;2.47;;
35667;SDS011;22158;59.280;17.806;2023-07-31T11:00:26;3.20;;;2.42;;
35667;SDS011;22158;59.280;17.806;2023-07-31T11:10:42;7.05;;;2.20;;
35667;SDS011;22158;59.280;17.806;2023-07-31T11:13:08;2.55;;;1.63;;
35667;SDS011;22158;59.280;17.806;2023-07-31T11:15:34;6.93;;;2.60;;
35667;SDS011;22158;59.280;17.806;2023-07-31T11:18:00;7.05;;;2.20;;
35667;SDS011;22158;59.280;17.806;2023-07-31T11:20:29;6.97;;;3.35;;
35667;SDS011;22158;59.280;17.806;2023-07-31T11:22:57;5.45;;;2.30;;
35667;SDS011;22158;59.280;17.806;2023-07-31T11:25:24;5.80;;;2.45;;
35667;SDS011;22158;59.280;17.806;2023-07-31T11:27:50;6.78;;;2.33;;
35667;SDS011;22158;59.280;17.806;2023-07-31T11:30:18;4.57;;;2.53;;
35667;SDS011;22158;59.280;17.806;2023-07-31T11:32:45;3.55;;;2.00;;
35667;SDS011;22158;59.280;17.806;2023-07-31T11:35:13;5.20;;;2.13;;
35667;SDS011;22158;59.280;17.806;2023-07-31T11:37:40;8.95;;;1.83;;
35667;SDS011;22158;59.280;17.806;2023-07-31T11:40:09;5.28;;;3.10;;
35667;SDS011;22158;59.280;17.806;2023-07-31T11:42:35;3.80;;;2.05;;
35667;SDS011;22158;59.280;17.806;2023-07-31T11:45:02;5.50;;;2.53;;
35667;SDS011;22158;59.280;17.806;2023-07-31T11:47:29;6.57;;;2.45;;
35667;SDS011;22158;59.280;17.806;2023-07-31T11:49:57;4.90;;;2.03;;
35667;SDS011;22158;59.280;17.806;2023-07-31T11:52:23;5.50;;;2.55;;
35667;SDS011;22158;59.280;17.806;2023-07-31T11:54:49;4.72;;;2.00;;
35667;SDS011;22158;59.280;17.806;2023-07-31T11:57:15;7.03;;;2.00;;
35667;SDS011;22158;59.280;17.806;2023-07-31T11:59:41;7.57;;;2.75;;
35667;SDS011;22158;59.280;17.806;2023-07-31T12:02:07;6.22;;;2.28;;
35667;SDS011;22158;59.280;17.806;2023-07-31T12:04:33;3.95;;;2.05;;
35667;SDS011;22158;59.280;17.806;2023-07-31T12:07:02;4.35;;;2.25;;
35667;SDS011;22158;59.280;17.806;2023-07-31T12:09:28;3.28;;;2.13;;
35667;SDS011;22158;59.280;17.806;2023-07-31T12:11:53;4.32;;;1.77;;
35667;SDS011;22158;59.280;17.806;2023-07-31T12:14:23;3.85;;;1.92;;
35667;SDS011;22158;59.280;17.806;2023-07-31T12:16:54;4.95;;;2.17;;
35667;SDS011;22158;59.280;17.806;2023-07-31T12:19:29;5.90;;;2.08;;
35667;SDS011;22158;59.280;17.806;2023-07-31T12:21:58;8.13;;;2.00;;
35667;SDS011;22158;59.280;17.806;2023-07-31T12:24:25;5.10;;;2.10;;
35667;SDS011;22158;59.280;17.806;2023-07-31T12:26:51;3.67;;;2.05;;
35667;SDS011;22158;59.280;17.806;2023-07-31T12:29:17;5.13;;;2.40;;
35667;SDS011;22158;59.280;17.806;2023-07-31T12:31:43;4.00;;;2.25;;
35667;SDS011;22158;59.280;17.806;2023-07-31T12:34:16;3.10;;;2.50;;
35667;SDS011;22158;59.280;17.806;2023-07-31T12:36:43;4.22;;;1.92;;
35667;SDS011;22158;59.280;17.806;2023-07-31T12:39:09;3.15;;;2.00;;
35667;SDS011;22158;59.280;17.806;2023-07-31T12:41:35;5.78;;;1.90;;
35667;SDS011;22158;59.280;17.806;2023-07-31T12:44:00;4.55;;;2.35;;
35667;SDS011;22158;59.280;17.806;2023-07-31T12:46:26;6.55;;;2.72;;
35667;SDS011;22158;59.280;17.806;2023-07-31T12:48:51;3.45;;;2.00;;
35667;SDS011;22158;59.280;17.806;2023-07-31T12:51:17;5.95;;;2.47;;
35667;SDS011;22158;59.280;17.806;2023-07-31T12:53:42;3.80;;;2.47;;
35667;SDS011;22158;59.280;17.806;2023-07-31T12:56:08;6.05;;;2.20;;
35667;SDS011;22158;59.280;17.806;2023-07-31T12:58:34;8.60;;;2.20;;
35667;SDS011;22158;59.280;17.806;2023-07-31T13:00:59;8.25;;;2.17;;
35667;SDS011;22158;59.280;17.806;2023-07-31T13:03:26;2.63;;;1.90;;
35667;SDS011;22158;59.280;17.806;2023-07-31T13:05:51;5.38;;;2.05;;
35667;SDS011;22158;59.280;17.806;2023-07-31T13:08:17;3.92;;;1.77;;
35667;SDS011;22158;59.280;17.806;2023-07-31T13:10:43;7.85;;;2.03;;
35667;SDS011;22158;59.280;17.806;2023-07-31T13:13:09;3.42;;;1.70;;
35667;SDS011;22158;59.280;17.806;2023-07-31T13:15:35;4.97;;;3.28;;
35667;SDS011;22158;59.280;17.806;2023-07-31T13:18:01;5.03;;;1.85;;
35667;SDS011;22158;59.280;17.806;2023-07-31T13:20:26;7.85;;;2.00;;
35667;SDS011;22158;59.280;17.806;2023-07-31T13:22:52;6.57;;;2.30;;
35667;SDS011;22158;59.280;17.806;2023-07-31T13:25:18;5.28;;;2.20;;
35667;SDS011;22158;59.280;17.806;2023-07-31T13:27:43;2.50;;;1.85;;
35667;SDS011;22158;59.280;17.806;2023-07-31T13:30:09;3.40;;;1.70;;
35667;SDS011;22158;59.280;17.806;2023-07-31T13:32:35;6.50;;;2.10;;
35667;SDS011;22158;59.280;17.806;2023-07-31T13:35:04;5.30;;;2.15;;
35667;SDS011;22158;59.280;17.806;2023-07-31T13:37:33;3.95;;;2.10;;
35667;SDS011;22158;59.280;17.806;2023-07-31T13:39:59;4.03;;;2.20;;
35667;SDS011;22158;59.280;17.806;2023-07-31T13:42:25;3.95;;;2.00;;
35667;SDS011;22158;59.280;17.806;2023-07-31T13:44:50;4.82;;;2.35;;
35667;SDS011;22158;59.280;17.806;2023-07-31T13:47:17;4.10;;;1.90;;
35667;SDS011;22158;59.280;17.806;2023-07-31T13:49:42;2.47;;;1.98;;
35667;SDS011;22158;59.280;17.806;2023-07-31T13:52:08;4.63;;;2.25;;
35667;SDS011;22158;59.280;17.806;2023-07-31T13:54:34;4.90;;;1.98;;
35667;SDS011;22158;59.280;17.806;2023-07-31T13:57:00;4.15;;;1.90;;
35667;SDS011;22158;59.280;17.806;2023-07-31T13:59:25;4.05;;;2.22;;
35667;SDS011;22158;59.280;17.806;2023-07-31T14:01:51;5.75;;;1.73;;
35667;SDS011;22158;59.280;17.806;2023-07-31T14:04:17;3.33;;;1.70;;
35667;SDS011;22158;59.280;17.806;2023-07-31T14:06:43;4.00;;;1.92;;
35667;SDS011;22158;59.280;17.806;2023-07-31T14:09:09;9.07;;;2.40;;
35667;SDS011;22158;59.280;17.806;2023-07-31T14:11:34;5.15;;;2.13;;
35667;SDS011;22158;59.280;17.806;2023-07-31T14:14:00;2.80;;;1.80;;
35667;SDS011;22158;59.280;17.806;2023-07-31T14:16:29;3.47;;;2.22;;
35667;SDS011;22158;59.280;17.806;2023-07-31T14:18:55;2.53;;;1.52;;
35667;SDS011;22158;59.280;17.806;2023-07-31T14:21:20;5.35;;;2.05;;
35667;SDS011;22158;59.280;17.806;2023-07-31T14:23:46;4.72;;;1.80;;
35667;SDS011;22158;59.280;17.806;2023-07-31T14:26:11;2.50;;;2.00;;
35667;SDS011;22158;59.280;17.806;2023-07-31T14:28:37;3.38;;;1.75;;
35667;SDS011;22158;59.280;17.806;2023-07-31T14:31:03;3.17;;;1.50;;
35667;SDS011;22158;59.280;17.806;2023-07-31T14:33:29;3.70;;;1.92;;
35667;SDS011;22158;59.280;17.806;2023-07-31T14:35:54;5.97;;;2.60;;
35667;SDS011;22158;59.280;17.806;2023-07-31T14:38:20;4.28;;;2.95;;
35667;SDS011;22158;59.280;17.806;2023-07-31T14:40:45;3.88;;;1.90;;
35667;SDS011;22158;59.280;17.806;2023-07-31T14:43:11;4.47;;;2.33;;
35667;SDS011;22158;59.280;17.806;2023-07-31T14:45:36;7.15;;;2.63;;
35667;SDS011;22158;59.280;17.806;2023-07-31T14:48:02;4.28;;;2.35;;
35667;SDS011;22158;59.280;17.806;2023-07-31T14:50:28;6.72;;;2.42;;
35667;SDS011;22158;59.280;17.806;2023-07-31T14:52:53;5.05;;;2.63;;
35667;SDS011;22158;59.280;17.806;2023-07-31T14:55:19;3.58;;;2.83;;